Time;durP1;ratioP1;P1;durP2;ratioP2;P2;SDS_P1;SDS_P2;PMS_P1;PMS_P2;Temp;Humidity;BMP_temperature;BMP_pressure;BME280_temperature;BME280_humidity;BME280_pressure;Samples;Min_cycle;Max_cycle;Signal;HPM_P1;HPM_P2
2022/07/14 00:02:22;;;;;;;2.00;1.80;;;;;;;22.48;43.18;99143.31;2618470;54;20090;-72
2022/07/14 00:04:52;;;;;;;3.13;2.00;;;;;;;22.41;42.91;99143.56;2622828;54;20058;-72
2022/07/14 00:07:22;;;;;;;4.82;2.00;;;;;;;22.34;43.14;99144.84;2622752;54;20046;-70
2022/07/14 00:09:51;;;;;;;2.10;1.90;;;;;;;22.40;43.03;99143.81;2618413;54;20042;-72
2022/07/14 00:12:21;;;;;;;2.08;1.60;;;;;;;22.38;42.88;99140.56;2618273;54;20078;-71
2022/07/14 00:14:50;;;;;;;2.20;1.80;;;;;;;22.20;43.53;99134.53;2617802;54;20027;-71
2022/07/14 00:17:22;;;;;;;3.88;1.80;;;;;;;21.97;44.18;99141.09;2617972;54;20039;-73
2022/07/14 00:19:52;;;;;;;3.42;2.30;;;;;;;21.94;43.97;99141.59;2617847;54;20062;-71
2022/07/14 00:22:22;;;;;;;2.97;1.67;;;;;;;22.00;44.00;99140.59;2618243;54;20042;-70
2022/07/14 00:24:56;;;;;;;2.65;1.63;;;;;;;22.03;44.23;99136.56;2617486;54;20037;-72
2022/07/14 00:27:26;;;;;;;2.03;1.60;;;;;;;22.05;43.75;99129.03;2617279;47;20546;-71
2022/07/14 00:29:55;;;;;;;3.70;2.10;;;;;;;21.98;43.95;99133.84;2617483;54;20026;-71
2022/07/14 00:32:27;;;;;;;3.42;1.60;;;;;;;21.87;43.92;99143.69;2617652;39;20450;-71
2022/07/14 00:34:59;;;;;;;2.95;1.67;;;;;;;21.85;44.51;99142.34;2617629;54;20061;-71
2022/07/14 00:37:28;;;;;;;2.92;1.73;;;;;;;21.85;43.98;99140.47;2619578;31;20456;-72
2022/07/14 00:40:00;;;;;;;2.25;1.77;;;;;;;21.84;44.11;99132.63;2618372;54;20537;-73
2022/07/14 00:42:32;;;;;;;2.30;1.95;;;;;;;21.80;44.51;99137.75;2622332;54;20035;-71
2022/07/14 00:45:03;;;;;;;3.45;1.73;;;;;;;21.83;44.61;99133.72;2627267;54;20022;-70
2022/07/14 00:47:36;;;;;;;3.97;1.80;;;;;;;21.91;44.76;99130.53;2626212;54;20578;-70
2022/07/14 00:50:08;;;;;;;2.53;1.90;;;;;;;21.95;44.87;99134.34;2621858;54;20036;-71
2022/07/14 00:52:42;;;;;;;1.90;1.60;;;;;;;21.85;44.78;99126.22;2619178;54;20039;-71
2022/07/14 00:55:12;;;;;;;1.90;1.80;;;;;;;21.93;44.60;99131.13;2619031;54;20554;-71
2022/07/14 00:57:42;;;;;;;3.35;1.90;;;;;;;21.96;45.44;99131.41;2618518;47;20045;-71
2022/07/14 01:00:15;;;;;;;4.28;1.63;;;;;;;21.84;45.89;99133.47;2618229;54;20037;-72
2022/07/14 01:02:49;;;;;;;3.70;2.08;;;;;;;21.80;45.79;99128.84;2619178;54;20073;-71
2022/07/14 01:05:19;;;;;;;2.30;1.58;;;;;;;21.74;45.76;99122.63;2619343;54;20069;-71
2022/07/14 01:07:49;;;;;;;2.20;1.90;;;;;;;21.70;45.94;99124.22;2619290;54;20125;-71
2022/07/14 01:10:21;;;;;;;3.00;2.05;;;;;;;21.62;45.94;99122.00;2618638;54;20064;-71
2022/07/14 01:12:52;;;;;;;2.80;1.70;;;;;;;21.50;46.02;99122.16;2618724;54;20561;-72
2022/07/14 01:15:25;;;;;;;2.47;1.80;;;;;;;21.24;46.32;99119.22;2618203;47;20027;-70
2022/07/14 01:17:57;;;;;;;1.83;1.55;;;;;;;21.18;46.71;99117.53;2618999;39;20423;-71
2022/07/14 01:20:28;;;;;;;2.03;1.80;;;;;;;21.07;46.58;99123.88;2618765;54;20029;-71
2022/07/14 01:23:01;;;;;;;4.07;1.90;;;;;;;20.92;47.48;99112.97;2619007;54;20031;-72
2022/07/14 01:25:31;;;;;;;3.30;1.70;;;;;;;20.80;47.37;99118.47;2618598;54;20093;-71
2022/07/14 01:28:00;;;;;;;5.93;2.20;;;;;;;20.84;47.41;99108.84;2618657;54;20289;-72
2022/07/14 01:30:30;;;;;;;1.95;1.85;;;;;;;20.79;47.47;99106.13;2618486;54;20069;-72
2022/07/14 01:32:59;;;;;;;2.53;1.80;;;;;;;20.67;47.77;99106.25;2618510;54;20030;-70
2022/07/14 01:35:30;;;;;;;1.98;1.77;;;;;;;20.72;47.80;99103.63;2617961;47;20035;-71
2022/07/14 01:38:02;;;;;;;4.68;1.95;;;;;;;20.56;48.63;99096.44;2617874;51;20023;-71
2022/07/14 01:40:31;;;;;;;2.78;1.90;;;;;;;20.59;48.67;99104.00;2618842;54;20057;-72
2022/07/14 01:43:01;;;;;;;3.00;1.80;;;;;;;20.52;48.40;99100.69;2619193;54;20037;-72
2022/07/14 01:45:32;;;;;;;2.92;1.80;;;;;;;20.44;48.51;99106.47;2618639;47;20082;-72
2022/07/14 01:48:02;;;;;;;4.38;2.05;;;;;;;20.36;48.82;99096.16;2619373;54;20118;-72
2022/07/14 01:50:34;;;;;;;1.90;1.70;;;;;;;20.28;49.39;99100.09;2618478;54;20026;-73
2022/07/14 01:53:06;;;;;;;4.15;2.00;;;;;;;20.23;49.08;99098.16;2618570;47;20030;-72
2022/07/14 01:55:39;;;;;;;3.42;1.58;;;;;;;20.21;49.47;99102.16;2618399;54;20030;-72
2022/07/14 01:58:08;;;;;;;1.92;1.70;;;;;;;20.16;49.82;99094.81;2619315;54;20041;-72
2022/07/14 02:00:38;;;;;;;2.60;2.00;;;;;;;20.11;49.51;99099.31;2617558;54;20033;-71
2022/07/14 02:03:07;;;;;;;2.10;1.60;;;;;;;20.13;49.46;99095.34;2617714;47;20033;-71
2022/07/14 02:05:37;;;;;;;2.85;1.80;;;;;;;20.14;49.54;99091.59;2618123;47;20045;-71
2022/07/14 02:08:10;;;;;;;5.47;1.52;;;;;;;20.28;49.53;99087.47;2623313;47;20030;-71
2022/07/14 02:13:23;;;;;;;3.08;2.15;;;;;;;20.46;49.05;99086.38;2625673;54;20038;-73
2022/07/14 02:15:55;;;;;;;3.08;2.17;;;;;;;20.47;49.04;99089.84;2630271;39;20458;-71
2022/07/14 02:18:24;;;;;;;11.27;6.25;;;;;;;20.45;49.11;99089.28;2626029;47;20022;-71
2022/07/14 02:20:54;;;;;;;3.42;2.30;;;;;;;20.34;49.93;99085.69;2625817;46;20026;-72
2022/07/14 02:23:28;;;;;;;2.35;2.10;;;;;;;20.27;50.02;99085.84;2620006;54;20036;-71
2022/07/14 02:25:58;;;;;;;4.43;2.63;;;;;;;20.26;49.89;99091.47;2621895;39;20488;-72
2022/07/14 02:28:27;;;;;;;2.97;2.47;;;;;;;20.28;49.50;99079.41;2626330;47;20034;-71
2022/07/14 02:30:57;;;;;;;4.07;3.60;;;;;;;20.17;50.24;99072.31;2618896;54;20023;-71
2022/07/14 02:33:26;;;;;;;10.65;5.70;;;;;;;20.07;50.84;99079.41;2618420;39;20418;-71
2022/07/14 02:35:56;;;;;;;4.20;2.17;;;;;;;20.01;50.91;99076.66;2618440;54;20033;-71
2022/07/14 02:38:29;;;;;;;4.13;3.10;;;;;;;19.87;50.85;99074.56;2618063;39;20112;-71
2022/07/14 02:40:59;;;;;;;4.20;2.50;;;;;;;19.74;51.36;99079.22;2617926;51;20070;-70
2022/07/14 02:43:30;;;;;;;3.95;3.03;;;;;;;19.62;51.97;99075.00;2617784;46;20049;-71
2022/07/14 02:46:00;;;;;;;4.05;2.67;;;;;;;19.71;51.59;99073.50;2617774;46;20042;-71
2022/07/14 02:48:30;;;;;;;5.65;2.38;;;;;;;19.83;51.07;99078.78;2617628;54;20041;-72
2022/07/14 02:51:02;;;;;;;5.95;3.97;;;;;;;19.73;51.21;99085.63;2617572;54;20031;-71
2022/07/14 02:53:36;;;;;;;6.80;3.55;;;;;;;19.76;51.94;99089.72;2623918;54;20030;-72
2022/07/14 02:56:06;;;;;;;;;;;;;;;19.73;51.92;99091.00;2623505;54;20026;-65
2022/07/14 02:58:38;;;;;;;6.07;2.28;;;;;;;19.62;51.76;99093.75;2617744;54;19949;-67
2022/07/14 03:01:09;;;;;;;5.50;2.45;;;;;;;19.69;52.13;99091.75;2617408;54;20034;-67
2022/07/14 03:03:40;;;;;;;4.95;2.25;;;;;;;19.79;52.23;99094.56;2619200;39;20179;-66
2022/07/14 03:06:13;;;;;;;8.55;2.78;;;;;;;19.78;51.88;99091.06;2618346;47;20116;-68
2022/07/14 03:08:47;;;;;;;5.82;2.88;;;;;;;19.74;51.69;99089.94;2618776;54;20030;-68
2022/07/14 03:11:18;;;;;;;3.00;2.53;;;;;;;19.65;52.44;99098.66;2618331;54;20034;-67
2022/07/14 03:13:47;;;;;;;5.75;2.30;;;;;;;19.63;52.34;99103.44;2618658;54;20086;-67
2022/07/14 03:16:20;;;;;;;2.67;2.47;;;;;;;19.66;52.61;99105.63;2622674;54;20026;-67
2022/07/14 03:18:54;;;;;;;4.20;2.25;;;;;;;19.66;52.44;99106.44;2621628;31;20522;-67
2022/07/14 03:21:25;;;;;;;2.40;2.20;;;;;;;19.43;53.16;99106.56;2618280;51;20027;-66
2022/07/14 03:24:00;;;;;;;2.28;2.10;;;;;;;19.34;53.17;99108.00;2618363;47;20030;-66
2022/07/14 03:26:32;;;;;;;3.00;2.15;;;;;;;19.29;53.59;99108.75;2618391;54;20517;-66
2022/07/14 03:29:01;;;;;;;3.38;2.65;;;;;;;19.28;53.32;99110.63;2618626;54;20034;-64
2022/07/14 03:31:33;;;;;;;3.50;2.30;;;;;;;19.23;53.20;99105.19;2618549;47;20025;-67
2022/07/14 03:34:03;;;;;;;8.15;2.55;;;;;;;19.14;53.62;99105.78;2618416;54;20061;-67
2022/07/14 03:36:34;;;;;;;5.50;2.55;;;;;;;19.01;53.99;99112.25;2617635;46;20042;-68
2022/07/14 03:39:11;;;;;;;4.43;2.42;;;;;;;18.84;54.38;99125.59;2617689;54;20034;-66
2022/07/14 03:41:44;;;;;;;4.05;2.20;;;;;;;18.85;54.92;99115.69;2618659;54;20030;-66
2022/07/14 03:44:13;;;;;;;3.97;2.50;;;;;;;18.91;54.99;99128.16;2618280;47;20037;-68
2022/07/14 03:46:43;;;;;;;3.47;2.42;;;;;;;19.04;54.70;99120.63;2618500;47;20086;-65
2022/07/14 03:49:18;;;;;;;2.78;2.50;;;;;;;19.12;54.46;99118.63;2618515;54;20034;-67
2022/07/14 03:51:50;;;;;;;4.10;2.70;;;;;;;19.10;54.54;99116.16;2618268;54;20058;-69
2022/07/14 03:54:27;;;;;;;5.95;3.17;;;;;;;19.07;54.54;99108.63;2618246;47;20038;-66
2022/07/14 03:56:56;;;;;;;6.32;2.38;;;;;;;19.09;54.41;99114.56;2618550;47;20042;-66
2022/07/14 03:59:27;;;;;;;2.90;2.60;;;;;;;19.06;54.40;99117.69;2618266;54;20019;-65
2022/07/14 04:01:57;;;;;;;3.92;2.38;;;;;;;19.09;54.28;99111.88;2605780;47;20038;-71
2022/07/14 04:04:26;;;;;;;4.75;2.70;;;;;;;19.09;54.51;99111.06;2624444;54;20599;-70
2022/07/14 04:06:56;;;;;;;3.53;2.63;;;;;;;19.05;54.73;99102.69;2624274;47;20031;-71
2022/07/14 04:09:28;;;;;;;3.92;2.75;;;;;;;19.07;54.92;99103.28;2623680;47;20595;-71
2022/07/14 04:11:58;;;;;;;4.35;2.50;;;;;;;18.98;54.92;99093.97;2623323;47;20023;-71
2022/07/14 04:14:27;;;;;;;4.50;2.67;;;;;;;19.02;55.23;99095.13;2624156;54;20042;-71
2022/07/14 04:16:58;;;;;;;2.83;2.63;;;;;;;19.01;55.12;99090.81;2624550;47;20034;-71
2022/07/14 04:19:28;;;;;;;5.00;2.85;;;;;;;19.06;55.29;99085.56;2623703;47;20034;-71
2022/07/14 04:21:58;;;;;;;4.05;3.35;;;;;;;19.16;54.98;99072.34;2624326;54;20054;-71
2022/07/14 04:24:51;;;;;;;3.22;2.92;;;;;;;19.27;54.83;99065.31;2624793;54;20023;-71
2022/07/14 04:27:21;;;;;;;3.75;2.67;;;;;;;19.20;54.56;99061.97;2624939;47;20097;-71
2022/07/14 04:29:51;;;;;;;4.50;3.35;;;;;;;19.14;55.10;99057.56;2625267;47;20026;-71
2022/07/14 04:32:21;;;;;;;3.33;3.03;;;;;;;19.14;54.79;99058.38;2625101;54;20726;-71
2022/07/14 04:34:51;;;;;;;3.80;2.95;;;;;;;19.15;55.14;99051.97;2625220;54;20031;-71
2022/07/14 04:37:21;;;;;;;3.70;2.67;;;;;;;19.17;55.12;99059.75;2625393;54;20030;-70
2022/07/14 04:39:54;;;;;;;5.47;3.08;;;;;;;19.18;55.15;99054.16;2625210;47;20042;-70
2022/07/14 04:42:24;;;;;;;3.35;2.50;;;;;;;19.17;55.56;99055.22;2625437;54;20040;-71
2022/07/14 04:44:54;;;;;;;6.55;2.90;;;;;;;19.21;54.91;99055.53;2622315;47;20045;-71
2022/07/14 04:47:24;;;;;;;3.58;2.50;;;;;;;19.21;55.20;99052.88;2618444;47;20039;-71
2022/07/14 04:52:47;;;;;;;7.43;3.50;;;;;;;19.16;55.36;99068.84;2617765;47;20030;-72
2022/07/14 04:55:43;;;;;;;6.18;2.90;;;;;;;19.11;55.47;99063.41;2618023;47;20038;-72
2022/07/14 04:58:36;;;;;;;6.15;3.08;;;;;;;19.02;55.67;99063.81;2617742;54;20610;-72
2022/07/14 05:01:07;;;;;;;3.75;2.60;;;;;;;18.99;55.96;99076.88;2618272;47;20568;-72
2022/07/14 05:03:43;;;;;;;4.07;3.15;;;;;;;19.19;55.56;99069.19;2617839;47;20023;-72
2022/07/14 05:06:13;;;;;;;5.20;3.15;;;;;;;19.37;55.80;99070.81;2618257;47;20027;-71
2022/07/14 05:08:43;;;;;;;3.25;2.95;;;;;;;19.61;55.11;99076.03;2618363;46;20053;-71
2022/07/14 05:11:16;;;;;;;5.10;3.35;;;;;;;19.84;54.77;99078.56;2618064;47;20027;-71
2022/07/14 05:13:46;;;;;;;5.00;3.20;;;;;;;20.02;54.24;99080.97;2618357;54;20027;-71
2022/07/14 05:16:17;;;;;;;3.70;3.30;;;;;;;20.15;54.14;99079.78;2618234;47;20063;-71
2022/07/14 05:18:46;;;;;;;2.90;2.60;;;;;;;20.22;54.02;99072.38;2620807;47;20037;-72
2022/07/14 05:21:16;;;;;;;4.00;2.83;;;;;;;20.34;53.84;99077.63;2624633;54;20088;-72
2022/07/14 05:23:47;;;;;;;3.92;2.90;;;;;;;20.39;53.59;99074.19;2618219;47;20146;-72
2022/07/14 05:26:21;;;;;;;4.68;3.10;;;;;;;20.51;53.44;99069.53;2618385;39;20468;-72
2022/07/14 05:28:50;;;;;;;4.07;3.10;;;;;;;20.52;52.77;99065.78;2617864;54;20038;-72
2022/07/14 05:31:20;;;;;;;5.00;2.92;;;;;;;20.56;52.91;99076.84;2617776;47;20057;-72
2022/07/14 05:33:52;;;;;;;3.60;2.60;;;;;;;20.59;52.74;99069.09;2617826;54;20605;-72
2022/07/14 05:36:22;;;;;;;4.05;3.50;;;;;;;20.75;52.23;99070.88;2617619;54;20026;-73
2022/07/14 05:38:53;;;;;;;5.35;3.05;;;;;;;20.91;51.79;99071.06;2617712;54;20526;-72
2022/07/14 05:41:25;;;;;;;8.73;3.50;;;;;;;21.07;51.81;99059.38;2617705;47;20030;-72
2022/07/14 05:43:54;;;;;;;5.00;4.03;;;;;;;21.24;51.40;99057.38;2621376;54;20030;-72
2022/07/14 05:46:24;;;;;;;8.38;3.13;;;;;;;21.43;50.74;99065.91;2627004;50;20050;-72
2022/07/14 05:48:54;;;;;;;3.30;2.92;;;;;;;21.53;50.78;99054.41;2626384;54;20110;-70
2022/07/14 05:51:24;;;;;;;6.35;3.85;;;;;;;21.66;50.27;99048.56;2625884;47;20033;-71
2022/07/14 05:53:55;;;;;;;5.82;3.20;;;;;;;21.81;49.59;99047.06;2618560;50;20031;-71
2022/07/14 05:56:30;;;;;;;5.78;3.55;;;;;;;21.82;49.44;99037.91;2618378;47;20596;-71
2022/07/14 05:59:00;;;;;;;5.18;3.40;;;;;;;21.81;49.63;99036.31;2618056;46;20030;-71
2022/07/14 06:01:49;;;;;;;7.03;3.67;;;;;;;21.70;49.93;99038.91;2618457;39;20418;-71
2022/07/14 06:04:19;;;;;;;4.20;2.90;;;;;;;21.56;49.76;99043.16;2618033;54;20175;-70
2022/07/14 06:06:51;;;;;;;8.73;3.90;;;;;;;21.72;49.85;99046.75;2618200;54;20023;-71
2022/07/14 06:09:21;;;;;;;6.90;3.80;;;;;;;21.77;49.40;99047.59;2618929;39;20477;-71
2022/07/14 06:11:53;;;;;;;3.70;2.72;;;;;;;21.82;49.69;99044.09;2617867;47;20027;-73
2022/07/14 06:14:26;;;;;;;5.05;3.10;;;;;;;21.98;48.95;99050.38;2618526;46;20034;-72
2022/07/14 06:16:57;;;;;;;6.35;3.15;;;;;;;22.14;48.69;99056.69;2618634;47;20038;-72
2022/07/14 06:19:27;;;;;;;5.00;3.80;;;;;;;22.22;48.79;99048.94;2618393;47;20022;-71
2022/07/14 06:21:56;;;;;;;9.50;4.10;;;;;;;22.23;48.58;99049.72;2619247;54;20094;-72
2022/07/14 06:24:26;;;;;;;4.50;3.17;;;;;;;22.13;48.73;99045.13;2618456;46;20549;-72
2022/07/14 06:26:58;;;;;;;5.05;3.42;;;;;;;22.09;48.34;99052.06;2618614;47;20034;-71
2022/07/14 06:29:28;;;;;;;7.03;2.97;;;;;;;22.09;48.47;99054.75;2618547;54;20022;-71
2022/07/14 06:31:59;;;;;;;6.68;3.10;;;;;;;22.09;48.34;99057.47;2618334;47;20077;-71
2022/07/14 06:34:28;;;;;;;4.80;2.90;;;;;;;22.06;49.02;99055.28;2619300;48;20033;-71
2022/07/14 06:37:24;;;;;;;7.18;3.20;;;;;;;22.14;47.85;99054.81;2627392;54;20073;-72
2022/07/14 06:39:54;;;;;;;7.88;2.63;;;;;;;22.29;47.67;99050.56;2626292;54;20033;-72
2022/07/14 06:42:27;;;;;;;5.15;3.70;;;;;;;22.38;47.93;99040.91;2626204;47;20038;-72
2022/07/14 06:45:16;;;;;;;3.78;3.30;;;;;;;22.45;47.58;99036.91;2625533;54;20625;-72
2022/07/14 06:47:49;;;;;;;6.90;3.35;;;;;;;22.59;46.84;99037.22;2618113;54;20082;-72
2022/07/14 06:50:18;;;;;;;5.97;3.05;;;;;;;22.80;46.90;99035.38;2617839;47;20094;-71
2022/07/14 06:52:48;;;;;;;7.78;3.15;;;;;;;22.86;46.13;99033.47;2617495;54;20030;-71
2022/07/14 06:55:18;;;;;;;4.82;3.20;;;;;;;23.00;45.62;99042.72;2617756;54;20030;-71
2022/07/14 06:57:50;;;;;;;5.05;3.67;;;;;;;23.10;45.91;99023.84;2617790;54;20078;-73
2022/07/14 07:00:27;;;;;;;7.65;3.25;;;;;;;23.23;45.66;99027.91;2618337;46;20139;-71
2022/07/14 07:02:57;;;;;;;4.75;2.80;;;;;;;23.31;45.55;99023.84;2618428;54;20031;-71
2022/07/14 07:08:12;;;;;;;5.82;2.97;;;;;;;23.31;45.19;99016.56;2618197;54;20090;-71
2022/07/14 07:10:43;;;;;;;4.40;2.60;;;;;;;23.43;44.88;99018.97;2618716;39;20427;-72
2022/07/14 07:13:15;;;;;;;8.40;2.95;;;;;;;23.62;44.62;99020.03;2618315;54;20046;-72
2022/07/14 07:15:44;;;;;;;5.20;2.80;;;;;;;23.63;45.01;99023.53;2617819;54;20128;-72
2022/07/14 07:18:14;;;;;;;7.38;2.47;;;;;;;23.52;44.72;99030.84;2618109;39;20573;-72
2022/07/14 07:20:46;;;;;;;4.63;3.15;;;;;;;23.56;44.72;99023.84;2617639;54;20041;-72
2022/07/14 07:23:21;;;;;;;5.55;3.10;;;;;;;23.59;44.75;99025.16;2618188;39;20546;-71
2022/07/14 07:25:50;;;;;;;6.55;2.75;;;;;;;23.62;45.14;99024.63;2618875;54;20038;-72
2022/07/14 07:28:22;;;;;;;3.65;2.80;;;;;;;23.62;44.56;99016.53;2619248;54;20041;-72
2022/07/14 07:30:52;;;;;;;6.45;2.35;;;;;;;23.64;44.92;99025.16;2619103;54;20073;-71
2022/07/14 07:33:22;;;;;;;10.85;2.92;;;;;;;23.66;44.48;99015.72;2619370;54;20049;-71
2022/07/14 07:35:51;;;;;;;5.90;2.95;;;;;;;23.75;44.74;99024.06;2618603;46;20049;-71
2022/07/14 07:38:21;;;;;;;5.93;2.58;;;;;;;23.84;44.41;99018.94;2622281;54;20037;-71
2022/07/14 07:40:53;;;;;;;5.32;3.00;;;;;;;23.91;43.80;99024.84;2622494;54;20533;-72
2022/07/14 07:43:25;;;;;;;3.13;2.67;;;;;;;24.02;43.78;99018.34;2622285;47;20037;-71
2022/07/14 07:45:54;;;;;;;4.63;2.53;;;;;;;24.22;43.86;99023.66;2623284;47;20037;-73
2022/07/14 07:48:25;;;;;;;6.25;2.75;;;;;;;24.34;43.68;99017.16;2624327;54;20166;-71
2022/07/14 07:50:55;;;;;;;5.57;2.80;;;;;;;24.45;42.86;99021.41;2624293;54;20037;-71
2022/07/14 07:53:24;;;;;;;6.70;2.72;;;;;;;24.64;42.90;99013.50;2623540;54;20034;-73
2022/07/14 07:55:54;;;;;;;7.97;2.95;;;;;;;24.84;41.94;99013.34;2620618;54;20042;-71
2022/07/14 07:58:26;;;;;;;7.78;2.95;;;;;;;24.94;42.23;99016.00;2621582;54;20044;-71
2022/07/14 08:00:56;;;;;;;2.83;2.35;;;;;;;25.01;41.78;99007.56;2619417;54;20572;-70
2022/07/14 08:03:26;;;;;;;10.73;3.65;;;;;;;24.91;41.26;99011.16;2618427;54;20030;-69
2022/07/14 08:05:55;;;;;;;6.07;2.50;;;;;;;25.03;41.22;99007.28;2618067;54;20049;-68
2022/07/14 08:08:45;;;;;;;6.30;3.20;;;;;;;25.13;40.94;98999.91;2618712;39;20457;-69
2022/07/14 08:11:15;;;;;;;6.28;3.28;;;;;;;25.22;40.95;98996.59;2618388;39;20436;-69
2022/07/14 08:13:47;;;;;;;9.18;3.30;;;;;;;25.32;40.78;98991.91;2617836;47;20030;-69
2022/07/14 08:16:16;;;;;;;5.07;3.20;;;;;;;25.43;40.66;98995.31;2621363;54;20026;-70
2022/07/14 08:18:46;;;;;;;6.85;2.53;;;;;;;25.42;40.63;98989.09;2625838;54;20031;-69
2022/07/14 08:21:16;;;;;;;4.82;2.45;;;;;;;25.41;39.96;98992.91;2625710;54;20037;-69
2022/07/14 08:23:46;;;;;;;6.13;2.58;;;;;;;25.45;40.28;98990.44;2625568;54;20034;-70
2022/07/14 08:26:15;;;;;;;4.07;2.35;;;;;;;25.43;40.10;98995.31;2620107;53;20046;-69
2022/07/14 08:28:47;;;;;;;4.35;2.95;;;;;;;25.38;39.78;98996.19;2625935;54;20041;-69
2022/07/14 08:31:17;;;;;;;3.30;2.83;;;;;;;25.44;39.45;98999.66;2625979;54;20031;-69
2022/07/14 08:33:46;;;;;;;16.10;3.05;;;;;;;25.49;39.64;98985.28;2626337;54;20034;-70
2022/07/14 08:36:16;;;;;;;3.72;2.70;;;;;;;25.47;39.23;98980.13;2627387;54;20023;-70
2022/07/14 08:38:46;;;;;;;6.18;2.42;;;;;;;25.50;39.01;98979.56;2625894;54;20041;-70
2022/07/14 08:41:16;;;;;;;6.40;2.67;;;;;;;25.62;39.32;98973.75;2619775;54;20034;-70
2022/07/14 08:43:51;;;;;;;5.97;2.40;;;;;;;25.67;38.73;98974.50;2619279;54;20035;-69
2022/07/14 08:46:21;;;;;;;6.10;2.90;;;;;;;25.85;37.72;98966.78;2619652;39;20437;-71
2022/07/14 08:48:51;;;;;;;5.95;2.55;;;;;;;26.09;37.08;98964.84;2618742;54;20062;-71
2022/07/14 08:51:21;;;;;;;7.68;2.85;;;;;;;26.32;36.04;98965.88;2618545;54;20031;-70
2022/07/14 08:53:51;;;;;;;6.63;2.40;;;;;;;26.54;35.72;98964.53;2618829;54;20026;-70
2022/07/14 08:56:21;;;;;;;5.57;2.80;;;;;;;26.69;35.04;98969.72;2618656;54;20037;-70
2022/07/14 08:58:53;;;;;;;6.40;2.38;;;;;;;26.82;35.42;98963.56;2619056;54;20026;-70
2022/07/14 09:01:26;;;;;;;5.05;2.20;;;;;;;26.99;34.58;98965.75;2618712;54;20026;-71
2022/07/14 09:03:56;;;;;;;12.20;3.08;;;;;;;27.02;35.13;98967.84;2618017;54;20074;-70
2022/07/14 09:06:53;;;;;;;8.15;2.63;;;;;;;27.17;34.42;98962.19;2619132;54;20105;-70
2022/07/14 09:09:24;;;;;;;9.77;2.80;;;;;;;27.27;33.97;98953.09;2618013;51;20086;-69
2022/07/14 09:11:56;;;;;;;10.63;3.13;;;;;;;27.34;33.83;98956.19;2618718;39;20442;-69
2022/07/14 09:15:44;;;;;;;7.43;2.80;;;;;;;27.51;33.93;98952.09;2620110;39;20422;-70
2022/07/14 09:17:25;;;;;;;5.75;2.53;;;;;;;27.63;33.72;98949.69;2619636;54;20030;-70
2022/07/14 09:20:07;;;;;;;7.93;2.97;;;;;;;27.86;33.21;98939.75;2620538;39;20429;-70
2022/07/14 09:22:38;;;;;;;10.57;2.67;;;;;;;28.13;32.25;98937.03;2620180;47;20039;-70
2022/07/14 09:25:10;;;;;;;10.98;2.60;;;;;;;28.20;31.53;98933.88;2621529;54;20122;-70
2022/07/14 09:27:41;;;;;;;6.60;2.80;;;;;;;28.19;31.71;98932.25;2621602;54;20030;-71
2022/07/14 09:30:14;;;;;;;8.80;2.28;;;;;;;28.24;32.24;98928.63;2622499;54;20039;-69
2022/07/14 09:32:49;;;;;;;5.53;2.50;;;;;;;28.22;32.47;98928.16;2622026;54;20034;-70
2022/07/14 09:35:22;;;;;;;10.02;3.38;;;;;;;28.01;32.66;98928.59;2623968;54;20030;-70
2022/07/14 09:37:53;;;;;;;6.90;4.10;;;;;;;27.83;33.14;98927.59;2623502;54;20033;-69
2022/07/14 09:40:26;;;;;;;6.55;3.10;;;;;;;27.91;32.88;98934.22;2623362;54;20632;-69
2022/07/14 09:43:04;;;;;;;8.43;3.85;;;;;;;27.96;32.85;98928.66;2625657;54;20030;-69
2022/07/14 09:45:37;;;;;;;6.80;3.20;;;;;;;27.97;33.05;98929.50;2627215;54;20045;-69
2022/07/14 09:48:09;;;;;;;6.75;2.55;;;;;;;27.87;33.04;98928.59;2626551;54;20034;-70
2022/07/14 09:50:41;;;;;;;7.03;2.88;;;;;;;27.84;33.41;98923.78;2624464;54;20026;-70
2022/07/14 09:53:19;;;;;;;5.97;2.90;;;;;;;27.89;33.40;98928.31;2623825;54;20027;-70
2022/07/14 09:55:58;;;;;;;5.75;3.17;;;;;;;28.08;33.59;98923.53;2625401;54;20042;-70
2022/07/14 09:58:31;;;;;;;5.47;3.17;;;;;;;28.23;33.45;98916.16;2625480;54;20030;-70
2022/07/14 10:01:10;;;;;;;6.72;2.50;;;;;;;28.41;33.14;98909.78;2625538;54;20038;-70
2022/07/14 10:03:43;;;;;;;5.88;2.75;;;;;;;28.56;32.90;98906.69;2626189;54;20019;-70
2022/07/14 10:06:14;;;;;;;4.53;2.55;;;;;;;28.67;32.85;98903.75;2625928;54;20046;-71
2022/07/14 10:09:04;;;;;;;9.00;2.47;;;;;;;28.77;32.82;98908.94;2625717;54;20019;-70
2022/07/14 10:11:35;;;;;;;6.93;2.80;;;;;;;28.81;32.66;98908.00;2626235;54;20603;-69
2022/07/14 10:14:05;;;;;;;8.63;3.08;;;;;;;28.78;32.51;98897.75;2625542;54;20031;-71
2022/07/14 10:16:41;;;;;;;6.13;2.50;;;;;;;28.69;32.74;98904.22;2625771;54;20074;-73
2022/07/14 10:19:14;;;;;;;6.13;2.67;;;;;;;28.67;32.56;98901.03;2617972;47;20113;-65
2022/07/14 10:21:46;;;;;;;4.38;2.58;;;;;;;28.84;32.67;98893.78;2618395;47;20573;-65
2022/07/14 10:24:16;;;;;;;8.07;3.03;;;;;;;29.08;32.10;98884.50;2618533;47;20159;-68
2022/07/14 10:26:47;;;;;;;3.42;2.20;;;;;;;28.97;32.33;98888.59;2619049;54;20026;-68
2022/07/14 10:29:17;;;;;;;5.22;2.63;;;;;;;29.08;32.36;98871.69;2618814;54;20074;-67
2022/07/14 10:32:02;;;;;;;9.23;2.72;;;;;;;29.27;32.42;98868.75;2618843;54;20042;-67
2022/07/14 10:34:41;;;;;;;3.67;2.30;;;;;;;29.37;32.07;98860.28;2619076;54;20163;-65
2022/07/14 10:37:18;;;;;;;3.67;2.70;;;;;;;29.59;32.01;98859.41;2619010;54;20074;-69
2022/07/14 10:39:52;;;;;;;6.57;2.60;;;;;;;29.70;31.88;98856.41;2619635;39;20415;-67
2022/07/14 10:42:32;;;;;;;3.78;2.50;;;;;;;29.86;31.56;98854.81;2619277;54;20050;-68
2022/07/14 10:45:04;;;;;;;8.30;2.92;;;;;;;29.81;31.93;98847.59;2619188;54;20022;-68
2022/07/14 10:47:47;;;;;;;10.80;2.70;;;;;;;29.63;31.98;98853.34;2619325;54;20030;-68
2022/07/14 10:50:23;;;;;;;8.73;2.45;;;;;;;29.65;32.19;98846.47;2619800;31;20459;-66
2022/07/14 10:53:04;;;;;;;4.60;2.95;;;;;;;29.85;31.84;98853.22;2618910;54;20030;-66
2022/07/14 10:55:40;;;;;;;4.68;2.58;;;;;;;30.00;31.81;98858.19;2618921;54;20031;-69
2022/07/14 10:58:30;;;;;;;6.55;2.00;;;;;;;29.93;31.81;98846.97;2619223;54;20035;-67
2022/07/14 11:01:00;;;;;;;3.80;2.28;;;;;;;30.15;31.93;98846.06;2619255;54;20052;-66
2022/07/14 11:03:50;;;;;;;6.88;2.10;;;;;;;30.26;31.34;98846.53;2619110;46;20045;-66
2022/07/14 11:06:23;;;;;;;3.88;2.33;;;;;;;30.09;30.99;98837.22;2618336;54;20033;-67
2022/07/14 11:09:23;;;;;;;4.47;2.20;;;;;;;29.99;31.39;98842.97;2618763;54;20030;-67
2022/07/14 11:12:17;;;;;;;4.50;2.20;;;;;;;30.18;30.86;98839.16;2619788;54;20038;-66
2022/07/14 11:14:47;;;;;;;3.50;2.33;;;;;;;30.20;30.94;98834.19;2619435;54;20026;-66
2022/07/14 11:17:40;;;;;;;7.05;2.65;;;;;;;30.35;30.89;98826.31;2619355;54;20049;-66
2022/07/14 11:20:12;;;;;;;4.97;2.17;;;;;;;30.66;30.69;98814.41;2622048;54;20546;-66
2022/07/14 11:22:45;;;;;;;5.95;2.08;;;;;;;30.87;30.42;98819.97;2622949;46;20126;-67
2022/07/14 11:25:29;;;;;;;8.60;2.35;;;;;;;31.16;30.35;98810.22;2618576;54;20041;-67
2022/07/14 11:27:58;;;;;;;3.38;2.20;;;;;;;31.35;28.92;98805.16;2618664;54;20038;-66
2022/07/14 11:30:31;;;;;;;3.92;2.15;;;;;;;31.31;28.97;98802.31;2617634;54;20026;-67
2022/07/14 11:33:12;;;;;;;2.50;2.00;;;;;;;31.48;28.93;98792.41;2618102;54;20030;-66
2022/07/14 11:38:37;;;;;;;4.38;2.55;;;;;;;31.85;28.36;98798.16;2617989;47;20126;-66
2022/07/14 11:41:13;;;;;;;6.55;2.17;;;;;;;31.82;27.96;98797.63;2617682;54;20037;-66
2022/07/14 11:43:44;;;;;;;4.72;1.98;;;;;;;31.71;28.13;98801.88;2617713;54;20030;-67
2022/07/14 11:46:15;;;;;;;5.90;2.33;;;;;;;31.66;28.18;98801.28;2618689;54;20045;-66
2022/07/14 11:48:48;;;;;;;6.43;2.38;;;;;;;31.68;28.37;98808.03;2622516;39;20703;-66
2022/07/14 11:51:22;;;;;;;3.08;2.40;;;;;;;31.72;28.57;98795.31;2622458;54;20023;-65
2022/07/14 11:54:04;;;;;;;5.50;2.88;;;;;;;31.90;28.32;98787.00;2622532;54;20546;-64
2022/07/14 11:56:35;;;;;;;8.45;2.20;;;;;;;31.99;28.12;98785.78;2619087;54;20060;-65
2022/07/14 11:59:07;;;;;;;5.28;2.33;;;;;;;32.00;28.06;98787.38;2619532;54;20031;-66
2022/07/14 12:01:38;;;;;;;3.03;2.03;;;;;;;31.88;28.67;98781.84;2623515;54;20027;-67
2022/07/14 12:04:14;;;;;;;3.20;2.30;;;;;;;32.01;28.22;98782.72;2623697;54;20028;-67
2022/07/14 12:06:47;;;;;;;4.05;2.03;;;;;;;31.98;28.17;98780.66;2624279;54;20034;-66
2022/07/14 12:09:30;;;;;;;6.10;1.98;;;;;;;31.98;27.80;98786.13;2623089;54;20034;-66
2022/07/14 12:12:13;;;;;;;6.15;2.40;;;;;;;31.77;28.67;98778.72;2623598;54;20039;-68